createdAt,value
2023-04-09T00:01:10.294Z,31.77
2023-04-09T00:03:40.686Z,32.50
2023-04-09T00:06:09.463Z,32.27
2023-04-09T00:08:39.897Z,31.37
2023-04-09T00:11:08.496Z,32.00
2023-04-09T00:13:39.528Z,32.77
2023-04-09T00:16:09.446Z,32.90
2023-04-09T00:18:38.251Z,31.80
2023-04-09T00:21:08.917Z,30.77
2023-04-09T00:23:39.010Z,30.40
2023-04-09T00:26:07.689Z,30.27
2023-04-09T00:28:36.365Z,30.63
2023-04-09T00:31:05.291Z,30.03
2023-04-09T00:33:33.905Z,29.73
2023-04-09T00:36:02.700Z,29.87
2023-04-09T00:38:32.012Z,30.57
2023-04-09T00:41:02.127Z,29.43
2023-04-09T00:43:30.986Z,30.47
2023-04-09T00:46:00.956Z,29.43
2023-04-09T00:48:29.757Z,30.53
2023-04-09T00:50:58.403Z,30.67
2023-04-09T00:53:27.384Z,28.73
2023-04-09T00:55:57.279Z,30.20
2023-04-09T00:58:27.416Z,30.17
2023-04-09T01:00:56.394Z,31.03
2023-04-09T01:03:25.554Z,29.57
2023-04-09T01:06:04.692Z,30.20
2023-04-09T01:08:40.574Z,29.93
2023-04-09T01:11:17.484Z,28.53
2023-04-09T01:14:01.243Z,30.00
2023-04-09T01:16:31.248Z,31.10
2023-04-09T01:19:04.308Z,31.27
2023-04-09T01:21:35.338Z,33.53
2023-04-09T01:24:20.717Z,31.37
2023-04-09T01:26:58.527Z,31.57
2023-04-09T01:29:33.301Z,33.47
2023-04-09T01:32:03.709Z,32.17
2023-04-09T01:34:33.088Z,32.10
2023-04-09T01:37:04.783Z,33.37
2023-04-09T01:39:34.494Z,32.93
2023-04-09T01:42:04.327Z,32.13
2023-04-09T01:44:34.812Z,32.83
2023-04-09T01:47:03.999Z,33.03
2023-04-09T01:49:33.289Z,31.23
2023-04-09T01:52:02.303Z,32.73
2023-04-09T01:54:30.861Z,32.10
2023-04-09T01:56:59.844Z,32.37
2023-04-09T01:59:28.445Z,33.40
2023-04-09T02:02:03.804Z,33.57
2023-04-09T02:04:35.648Z,33.90
2023-04-09T02:07:07.968Z,33.70
2023-04-09T02:09:40.712Z,35.00
2023-04-09T02:12:13.549Z,34.60
2023-04-09T02:14:44.113Z,32.07
2023-04-09T02:17:14.717Z,33.10
2023-04-09T02:19:44.854Z,32.13
2023-04-09T02:22:14.165Z,34.20
2023-04-09T02:24:42.744Z,31.77
2023-04-09T02:27:11.505Z,31.73
2023-04-09T02:29:41.001Z,32.80
2023-04-09T02:32:09.679Z,31.40
2023-04-09T02:34:39.706Z,31.73
2023-04-09T02:37:08.377Z,32.13
2023-04-09T02:39:37.221Z,32.10
2023-04-09T02:42:08.073Z,32.10
2023-04-09T02:44:36.707Z,30.50
2023-04-09T02:47:05.689Z,32.87
2023-04-09T02:49:34.684Z,33.17
2023-04-09T02:52:04.782Z,32.43
2023-04-09T02:54:33.375Z,30.60
2023-04-09T02:57:01.967Z,32.37
2023-04-09T02:59:30.467Z,31.90
2023-04-09T03:01:59.091Z,32.93
2023-04-09T03:04:28.042Z,27.67
2023-04-09T03:06:56.580Z,33.17
2023-04-09T03:09:26.670Z,31.10
2023-04-09T03:11:56.509Z,31.63
2023-04-09T03:14:25.150Z,25.13
2023-04-09T03:16:53.755Z,31.97
2023-04-09T03:19:22.463Z,31.53
2023-04-09T03:21:51.513Z,31.13
2023-04-09T03:24:20.040Z,24.23
2023-04-09T03:26:50.357Z,29.03
2023-04-09T03:29:18.908Z,33.43
2023-04-09T03:31:47.429Z,31.50
2023-04-09T03:34:16.134Z,31.40
2023-04-09T03:36:45.004Z,32.03
2023-04-09T03:39:13.475Z,32.50
2023-04-09T03:41:42.021Z,31.43
2023-04-09T03:44:12.001Z,29.77
2023-04-09T03:46:40.854Z,23.63
2023-04-09T03:49:09.693Z,30.40
2023-04-09T03:51:38.215Z,21.30
2023-04-09T03:54:06.718Z,17.50
2023-04-09T03:56:35.580Z,30.43
2023-04-09T03:59:04.189Z,30.73
2023-04-09T04:01:35.120Z,29.57
2023-04-09T04:04:03.992Z,29.80
2023-04-09T04:06:35.330Z,17.73
2023-04-09T04:09:04.021Z,22.77
2023-04-09T04:11:32.647Z,27.63
2023-04-09T04:14:01.225Z,20.40
2023-04-09T04:16:30.107Z,19.83
2023-04-09T04:19:00.087Z,21.80
2023-04-09T04:21:28.617Z,21.17
2023-04-09T04:23:57.257Z,18.53
2023-04-09T04:26:26.057Z,20.40
2023-04-09T04:28:54.779Z,20.03
2023-04-09T04:31:23.494Z,21.30
2023-04-09T04:33:51.975Z,18.17
2023-04-09T04:36:22.106Z,20.30
2023-04-09T04:38:50.868Z,19.70
2023-04-09T04:41:19.677Z,20.77
2023-04-09T04:43:49.048Z,17.60
2023-04-09T04:46:17.705Z,16.37
2023-04-09T04:48:46.271Z,16.83
2023-04-09T04:51:14.881Z,20.10
2023-04-09T04:53:45.207Z,20.40
2023-04-09T04:56:15.738Z,19.57
2023-04-09T04:58:44.248Z,21.30
2023-04-09T05:01:12.887Z,21.20
2023-04-09T05:03:41.617Z,20.87
2023-04-09T05:06:10.337Z,19.93
2023-04-09T05:08:39.811Z,18.17
2023-04-09T05:11:13.238Z,19.07
2023-04-09T05:13:41.768Z,18.90
2023-04-09T05:16:10.320Z,22.33
2023-04-09T05:18:39.633Z,21.47
2023-04-09T05:21:08.117Z,18.10
2023-04-09T05:23:36.618Z,21.00
2023-04-09T05:26:05.775Z,21.27
2023-04-09T05:28:35.826Z,21.93
2023-04-09T05:31:04.355Z,18.87
2023-04-09T05:33:37.904Z,18.03
2023-04-09T05:36:07.290Z,19.33
2023-04-09T05:38:36.189Z,16.60
2023-04-09T05:41:05.029Z,20.70
2023-04-09T05:43:35.013Z,19.93
2023-04-09T05:46:03.569Z,19.50
2023-04-09T05:48:32.141Z,19.97
2023-04-09T05:51:01.085Z,21.20
2023-04-09T05:53:29.720Z,21.00
2023-04-09T05:55:58.611Z,16.97
2023-04-09T05:58:27.469Z,22.27
2023-04-09T06:00:57.401Z,23.03
2023-04-09T06:03:26.123Z,23.10
2023-04-09T06:05:55.032Z,24.03
2023-04-09T06:08:23.518Z,25.03
2023-04-09T06:10:52.046Z,24.23
2023-04-09T06:13:21.454Z,24.10
2023-04-09T06:15:50.305Z,25.30
2023-04-09T06:18:20.349Z,20.87
2023-04-09T06:20:48.845Z,30.10
2023-04-09T06:23:17.393Z,24.83
2023-04-09T06:25:46.298Z,29.33
2023-04-09T06:28:14.820Z,27.67
2023-04-09T06:30:43.282Z,29.27
2023-04-09T06:33:11.809Z,31.83
2023-04-09T06:35:41.998Z,28.27
2023-04-09T06:38:11.212Z,34.77
2023-04-09T06:40:40.594Z,36.40
2023-04-09T06:43:09.724Z,32.67
2023-04-09T06:45:40.988Z,37.43
2023-04-09T06:48:09.955Z,35.37
2023-04-09T06:50:38.857Z,37.67
2023-04-09T06:53:09.399Z,38.30
2023-04-09T06:55:38.091Z,37.27
2023-04-09T06:58:06.917Z,35.20
2023-04-09T07:00:35.768Z,36.63
2023-04-09T07:03:05.118Z,36.50
2023-04-09T07:05:33.800Z,33.53
2023-04-09T07:08:02.328Z,33.67
2023-04-09T07:10:32.664Z,34.87
2023-04-09T07:13:01.288Z,32.90
2023-04-09T07:15:29.819Z,31.37
2023-04-09T07:17:58.867Z,31.27
2023-04-09T07:20:27.434Z,31.73
2023-04-09T07:22:56.046Z,30.60
2023-04-09T07:25:25.093Z,31.23
2023-04-09T07:27:55.177Z,31.13
2023-04-09T07:30:24.256Z,30.53
2023-04-09T07:32:53.092Z,28.80
2023-04-09T07:35:22.154Z,29.37
2023-04-09T07:37:50.912Z,29.17
2023-04-09T07:40:20.479Z,28.20
2023-04-09T07:42:49.790Z,25.73
2023-04-09T07:45:20.666Z,26.87
2023-04-09T07:47:49.346Z,24.50
2023-04-09T07:50:17.960Z,24.33
2023-04-09T07:52:46.464Z,25.13
2023-04-09T07:55:16.265Z,22.03
2023-04-09T07:57:45.422Z,21.50
2023-04-09T08:00:15.058Z,20.30
2023-04-09T08:02:45.319Z,19.73
2023-04-09T08:05:14.249Z,19.13
2023-04-09T08:07:42.902Z,20.03
2023-04-09T08:10:15.313Z,19.70
2023-04-09T08:12:44.205Z,20.37
2023-04-09T08:15:13.019Z,19.10
2023-04-09T08:17:41.701Z,18.13
2023-04-09T08:20:13.318Z,17.67
2023-04-09T08:22:42.944Z,17.70
2023-04-09T08:25:11.603Z,17.80
2023-04-09T08:27:40.281Z,17.90
2023-04-09T08:30:10.214Z,16.80
2023-04-09T08:32:39.138Z,17.40
2023-04-09T08:35:09.308Z,16.17
2023-04-09T08:37:39.740Z,17.03
2023-04-09T08:40:10.135Z,16.67
2023-04-09T08:42:40.894Z,15.00
2023-04-09T08:45:11.885Z,14.10
2023-04-09T08:47:42.292Z,15.20
2023-04-09T08:50:11.835Z,13.73
2023-04-09T08:52:42.355Z,15.40
2023-04-09T08:55:13.938Z,14.47
2023-04-09T08:57:43.009Z,14.63
2023-04-09T09:00:12.458Z,12.07
2023-04-09T09:03:01.577Z,12.23
2023-04-09T09:05:38.420Z,11.53
2023-04-09T09:08:10.005Z,12.77
2023-04-09T09:10:44.033Z,10.07
2023-04-09T09:13:21.495Z,10.53
2023-04-09T09:15:54.232Z,10.10
2023-04-09T09:18:38.563Z,10.13
2023-04-09T09:21:12.930Z,8.90
2023-04-09T09:23:43.795Z,9.33
2023-04-09T09:26:16.619Z,9.10
2023-04-09T09:28:45.813Z,9.43
2023-04-09T09:31:15.227Z,8.30
2023-04-09T09:33:44.382Z,8.43
2023-04-09T09:36:13.297Z,9.20
2023-04-09T09:38:57.323Z,8.90
2023-04-09T09:41:27.705Z,8.33
2023-04-09T09:43:57.004Z,8.27
2023-04-09T09:46:28.800Z,8.10
2023-04-09T09:48:58.452Z,7.73
2023-04-09T09:51:30.332Z,7.20
2023-04-09T09:54:01.445Z,7.53
2023-04-09T09:56:33.772Z,6.67
2023-04-09T09:59:08.904Z,5.90
2023-04-09T10:01:39.061Z,6.13
2023-04-09T10:04:13.709Z,5.90
2023-04-09T10:06:45.776Z,6.40
2023-04-09T10:09:16.078Z,6.10
2023-04-09T10:11:48.190Z,6.40
2023-04-09T10:14:19.205Z,6.57
2023-04-09T10:16:48.717Z,6.50
2023-04-09T10:19:19.801Z,6.67
2023-04-09T10:21:55.262Z,7.50
2023-04-09T10:24:25.953Z,7.07
2023-04-09T10:26:56.858Z,6.23
2023-04-09T10:29:30.609Z,6.30
2023-04-09T10:32:08.543Z,6.43
2023-04-09T10:34:39.562Z,7.53
2023-04-09T10:37:10.829Z,6.73
2023-04-09T10:39:46.404Z,7.00
2023-04-09T10:42:17.101Z,8.33
2023-04-09T10:44:50.100Z,7.40
2023-04-09T10:47:34.669Z,7.20
2023-04-09T10:50:19.983Z,7.23
2023-04-09T10:52:53.187Z,8.03
2023-04-09T10:55:50.458Z,7.63
2023-04-09T10:58:20.144Z,8.30
2023-04-09T11:00:51.039Z,8.20
2023-04-09T11:03:25.984Z,7.60
2023-04-09T11:06:02.605Z,7.53
2023-04-09T11:08:33.836Z,7.40
2023-04-09T11:11:05.590Z,7.33
2023-04-09T11:13:37.749Z,7.07
2023-04-09T11:16:07.532Z,7.40
2023-04-09T11:18:37.561Z,6.50
2023-04-09T11:21:06.738Z,6.33
2023-04-09T11:23:37.211Z,6.93
2023-04-09T11:26:07.961Z,6.90
2023-04-09T11:28:37.268Z,7.37
2023-04-09T11:31:07.594Z,6.53
2023-04-09T11:33:36.591Z,6.90
2023-04-09T11:36:07.826Z,7.13
2023-04-09T11:38:38.982Z,7.70
2023-04-09T11:41:13.734Z,6.80
2023-04-09T11:43:42.672Z,6.90
2023-04-09T11:46:15.466Z,7.60
2023-04-09T11:48:44.269Z,7.50
2023-04-09T11:51:14.347Z,7.10
2023-04-09T11:53:43.825Z,7.57
2023-04-09T11:56:14.812Z,6.83
2023-04-09T11:58:48.753Z,6.63
2023-04-09T12:01:24.058Z,6.97
2023-04-09T12:03:55.405Z,6.93
2023-04-09T12:06:25.909Z,7.00
2023-04-09T12:08:55.761Z,7.37
2023-04-09T12:11:37.728Z,7.17
2023-04-09T12:14:14.921Z,7.20
2023-04-09T12:16:45.086Z,7.27
2023-04-09T12:19:15.939Z,6.60
2023-04-09T12:21:51.868Z,6.73
2023-04-09T12:24:22.859Z,6.27
2023-04-09T12:26:53.784Z,6.77
2023-04-09T12:29:27.104Z,6.53
2023-04-09T12:31:56.264Z,6.50
2023-04-09T12:34:27.654Z,6.47
2023-04-09T12:36:56.880Z,7.53
2023-04-09T12:39:34.490Z,6.57
2023-04-09T12:42:09.888Z,6.23
2023-04-09T12:44:39.472Z,6.37
2023-04-09T12:47:10.423Z,8.40
2023-04-09T12:49:42.350Z,9.43
2023-04-09T12:52:12.336Z,6.67
2023-04-09T12:54:43.715Z,6.73
2023-04-09T12:57:16.903Z,6.97
2023-04-09T12:59:49.981Z,7.30
2023-04-09T13:02:24.892Z,7.00
2023-04-09T13:04:55.244Z,6.43
2023-04-09T13:07:26.786Z,5.90
2023-04-09T13:09:55.548Z,7.37
2023-04-09T13:12:26.241Z,6.00
2023-04-09T13:14:57.221Z,6.37
2023-04-09T13:17:28.673Z,6.83
2023-04-09T13:19:57.701Z,6.03
2023-04-09T13:22:27.486Z,6.57
2023-04-09T13:24:59.984Z,12.10
2023-04-09T13:27:30.137Z,9.53
2023-04-09T13:29:58.900Z,13.77
2023-04-09T13:32:30.477Z,9.80
2023-04-09T13:34:59.337Z,9.00
2023-04-09T13:37:28.123Z,7.37
2023-04-09T13:39:57.820Z,7.17
2023-04-09T13:42:33.100Z,10.43
2023-04-09T13:45:02.039Z,7.13
2023-04-09T13:47:31.356Z,8.43
2023-04-09T13:49:59.989Z,6.83
2023-04-09T13:52:31.446Z,8.43
2023-04-09T13:55:00.208Z,7.60
2023-04-09T13:57:30.334Z,7.77
2023-04-09T14:00:02.435Z,7.00
2023-04-09T14:02:31.357Z,6.57
2023-04-09T14:05:00.525Z,7.60
2023-04-09T14:07:29.308Z,7.40
2023-04-09T14:09:58.393Z,6.77
2023-04-09T14:12:27.147Z,6.40
2023-04-09T14:14:57.330Z,5.97
2023-04-09T14:17:26.032Z,6.90
2023-04-09T14:19:55.244Z,6.47
2023-04-09T14:22:24.125Z,6.00
2023-04-09T14:24:52.855Z,6.50
2023-04-09T14:27:21.591Z,7.00
2023-04-09T14:29:50.846Z,6.90
2023-04-09T14:32:21.339Z,5.93
2023-04-09T14:34:50.663Z,7.10
2023-04-09T14:37:19.429Z,6.43
2023-04-09T14:39:48.578Z,7.60
2023-04-09T14:42:17.605Z,5.80
2023-04-09T14:44:46.832Z,5.77
2023-04-09T14:47:16.042Z,15.60
2023-04-09T14:49:46.568Z,7.20
2023-04-09T14:52:15.445Z,18.10
2023-04-09T14:54:44.514Z,6.43
2023-04-09T14:57:13.428Z,7.10
2023-04-09T14:59:42.477Z,7.77
2023-04-09T15:02:11.457Z,9.00
2023-04-09T15:04:40.631Z,5.40
2023-04-09T15:07:11.641Z,10.90
2023-04-09T15:09:42.790Z,6.03
2023-04-09T15:12:11.694Z,6.50
2023-04-09T15:14:46.998Z,5.63
2023-04-09T15:17:17.282Z,6.07
2023-04-09T15:19:46.154Z,7.97
2023-04-09T15:22:16.744Z,7.07
2023-04-09T15:24:47.448Z,6.17
2023-04-09T15:27:16.330Z,6.00
2023-04-09T15:29:48.097Z,5.17
2023-04-09T15:32:16.745Z,7.23
2023-04-09T15:34:45.886Z,5.60
2023-04-09T15:37:16.220Z,8.77
2023-04-09T15:39:44.996Z,6.33
2023-04-09T15:42:14.828Z,6.00
2023-04-09T15:44:43.736Z,6.07
2023-04-09T15:47:12.559Z,6.10
2023-04-09T15:49:41.355Z,7.10
2023-04-09T15:52:10.839Z,5.97
2023-04-09T15:54:41.232Z,5.53
2023-04-09T15:57:10.018Z,5.70
2023-04-09T15:59:38.948Z,5.80
2023-04-09T16:02:08.459Z,6.07
2023-04-09T16:04:39.893Z,5.73
2023-04-09T16:07:09.552Z,6.83
2023-04-09T16:09:38.649Z,5.97
2023-04-09T16:12:09.441Z,8.50
2023-04-09T16:14:38.524Z,7.07
2023-04-09T16:17:07.485Z,6.27
2023-04-09T16:19:36.711Z,6.40
2023-04-09T16:22:05.606Z,6.17
2023-04-09T16:24:35.550Z,6.30
2023-04-09T16:27:04.520Z,6.33
2023-04-09T16:29:34.976Z,6.77
2023-04-09T16:32:07.220Z,6.60
2023-04-09T16:34:36.605Z,6.00
2023-04-09T16:37:15.914Z,6.30
2023-04-09T16:39:48.257Z,6.33
2023-04-09T16:42:17.695Z,6.27
2023-04-09T16:44:47.791Z,7.10
2023-04-09T16:47:16.694Z,6.10
2023-04-09T16:49:45.523Z,5.80
2023-04-09T16:52:14.716Z,6.33
2023-04-09T16:54:43.390Z,5.70
2023-04-09T16:57:12.776Z,5.63
2023-04-09T16:59:42.730Z,5.50
2023-04-09T17:02:13.540Z,6.40
2023-04-09T17:04:42.368Z,7.47
2023-04-09T17:07:11.104Z,8.40
2023-04-09T17:09:40.996Z,7.70
2023-04-09T17:12:11.487Z,7.33
2023-04-09T17:14:42.274Z,6.60
2023-04-09T17:17:13.169Z,6.90
2023-04-09T17:19:44.547Z,6.90
2023-04-09T17:22:14.196Z,6.77
2023-04-09T17:24:43.116Z,7.17
2023-04-09T17:27:12.282Z,9.57
2023-04-09T17:29:41.275Z,27.07
2023-04-09T17:32:10.734Z,11.73
2023-04-09T17:34:41.937Z,7.87
2023-04-09T17:37:10.816Z,8.00
2023-04-09T17:39:39.966Z,6.60
2023-04-09T17:42:13.254Z,6.97
2023-04-09T17:44:42.325Z,6.40
2023-04-09T17:47:12.917Z,6.10
2023-04-09T17:49:46.459Z,5.57
2023-04-09T17:52:16.853Z,5.83
2023-04-09T17:54:46.891Z,6.27
2023-04-09T17:57:15.722Z,6.10
2023-04-09T17:59:44.629Z,8.07
2023-04-09T18:02:14.199Z,7.60
2023-04-09T18:04:44.856Z,7.47
2023-04-09T18:07:13.780Z,6.90
2023-04-09T18:09:42.530Z,7.33
2023-04-09T18:12:11.233Z,7.20
2023-04-09T18:14:40.099Z,7.03
2023-04-09T18:17:10.113Z,7.43
2023-04-09T18:19:39.260Z,6.67
2023-04-09T18:22:09.580Z,6.77
2023-04-09T18:24:38.506Z,6.90
2023-04-09T18:27:07.802Z,6.50
2023-04-09T18:29:37.196Z,7.00
2023-04-09T18:32:06.745Z,7.03
2023-04-09T18:34:35.474Z,7.27
2023-04-09T18:37:04.572Z,7.63
2023-04-09T18:39:36.560Z,7.97
2023-04-09T18:42:05.866Z,8.73
2023-04-09T18:44:36.531Z,8.70
2023-04-09T18:47:06.127Z,8.33
2023-04-09T18:49:35.353Z,8.37
2023-04-09T18:52:05.714Z,8.57
2023-04-09T18:54:37.394Z,8.10
2023-04-09T18:57:06.721Z,8.77
2023-04-09T18:59:35.992Z,8.67
2023-04-09T19:02:06.432Z,8.60
2023-04-09T19:04:40.174Z,8.47
2023-04-09T19:07:11.316Z,7.40
2023-04-09T19:09:41.953Z,7.57
2023-04-09T19:12:10.929Z,6.70
2023-04-09T19:14:40.422Z,6.90
2023-04-09T19:17:09.409Z,7.03
2023-04-09T19:19:38.619Z,6.77
2023-04-09T19:22:07.611Z,6.33
2023-04-09T19:24:36.774Z,5.77
2023-04-09T19:27:10.027Z,6.30
2023-04-09T19:29:41.392Z,6.30
2023-04-09T19:32:12.983Z,5.97
2023-04-09T19:34:42.462Z,6.70
2023-04-09T19:37:12.036Z,6.83
2023-04-09T19:39:41.781Z,7.80
2023-04-09T19:42:12.694Z,7.60
2023-04-09T19:44:41.733Z,7.50
2023-04-09T19:47:10.710Z,7.07
2023-04-09T19:49:42.082Z,6.80
2023-04-09T19:52:18.484Z,7.33
2023-04-09T19:54:47.762Z,7.63
2023-04-09T19:57:18.175Z,7.53
2023-04-09T19:59:48.585Z,8.37
2023-04-09T20:02:18.808Z,8.37
2023-04-09T20:04:51.026Z,8.37
2023-04-09T20:07:20.310Z,9.33
2023-04-09T20:09:53.060Z,11.50
2023-04-09T20:12:28.421Z,11.23
2023-04-09T20:15:00.640Z,11.60
2023-04-09T20:17:30.075Z,14.40
2023-04-09T20:19:59.418Z,16.07
2023-04-09T20:22:29.333Z,15.07
2023-04-09T20:25:02.328Z,15.40
2023-04-09T20:27:33.335Z,15.23
2023-04-09T20:30:02.795Z,14.40
2023-04-09T20:32:31.660Z,13.97
2023-04-09T20:35:07.540Z,13.33
2023-04-09T20:37:43.146Z,13.07
2023-04-09T20:40:13.548Z,14.40
2023-04-09T20:42:43.983Z,13.73
2023-04-09T20:45:13.819Z,14.60
2023-04-09T20:47:43.032Z,15.10
2023-04-09T20:50:12.684Z,16.23
2023-04-09T20:52:41.986Z,15.10
2023-04-09T20:55:11.997Z,14.13
2023-04-09T20:57:42.916Z,14.33
2023-04-09T21:00:13.834Z,13.33
2023-04-09T21:02:42.902Z,12.23
2023-04-09T21:05:22.633Z,11.87
2023-04-09T21:07:53.249Z,10.80
2023-04-09T21:10:22.930Z,11.77
2023-04-09T21:12:53.451Z,11.73
2023-04-09T21:15:22.199Z,12.07
2023-04-09T21:17:51.136Z,12.43
2023-04-09T21:20:20.486Z,12.67
2023-04-09T21:22:50.064Z,11.93
2023-04-09T21:25:21.804Z,12.87
2023-04-09T21:27:50.980Z,12.57
2023-04-09T21:30:21.266Z,13.73
2023-04-09T21:32:50.503Z,12.83
2023-04-09T21:35:19.808Z,14.00
2023-04-09T21:37:50.667Z,14.77
2023-04-09T21:40:19.757Z,15.90
2023-04-09T21:42:49.024Z,17.73
2023-04-09T21:45:18.366Z,21.87
2023-04-09T21:47:48.552Z,22.20
2023-04-09T21:50:17.539Z,23.50
2023-04-09T21:52:47.378Z,24.53
2023-04-09T21:55:17.528Z,25.40
2023-04-09T21:57:46.314Z,26.20
2023-04-09T22:00:19.019Z,27.10
2023-04-09T22:02:49.448Z,26.27
2023-04-09T22:05:19.287Z,26.03
2023-04-09T22:07:48.005Z,25.27
2023-04-09T22:10:17.124Z,24.00
2023-04-09T22:12:45.958Z,22.70
2023-04-09T22:15:14.760Z,21.90
2023-04-09T22:17:43.430Z,20.13
2023-04-09T22:20:14.050Z,20.17
2023-04-09T22:22:43.001Z,20.60
2023-04-09T22:25:12.488Z,21.33
2023-04-09T22:27:41.791Z,21.37
2023-04-09T22:30:11.208Z,21.30
2023-04-09T22:32:40.049Z,21.20
2023-04-09T22:35:10.486Z,23.13
2023-04-09T22:37:41.274Z,22.50
2023-04-09T22:40:14.714Z,22.00
2023-04-09T22:42:44.181Z,21.80
2023-04-09T22:45:13.438Z,21.67
2023-04-09T22:47:42.422Z,21.40
2023-04-09T22:50:13.620Z,21.77
2023-04-09T22:52:43.762Z,20.13
2023-04-09T22:55:13.874Z,20.70
2023-04-09T22:57:44.645Z,20.10
2023-04-09T23:00:14.278Z,18.67
2023-04-09T23:02:43.359Z,18.27
2023-04-09T23:05:15.082Z,17.10
2023-04-09T23:07:46.919Z,17.57
2023-04-09T23:10:17.661Z,17.50
2023-04-09T23:12:46.470Z,16.60
2023-04-09T23:15:15.086Z,15.10
2023-04-09T23:17:43.822Z,15.23
2023-04-09T23:20:15.166Z,15.50
2023-04-09T23:22:47.264Z,16.33
2023-04-09T23:25:16.222Z,14.90
2023-04-09T23:27:46.823Z,16.10
2023-04-09T23:30:18.328Z,16.30
2023-04-09T23:32:47.268Z,17.57
2023-04-09T23:35:16.864Z,18.50
2023-04-09T23:37:49.280Z,17.77
2023-04-09T23:40:21.965Z,16.73
2023-04-09T23:42:51.283Z,17.17
2023-04-09T23:45:23.819Z,16.60
2023-04-09T23:47:53.130Z,16.03
2023-04-09T23:50:23.284Z,15.07
2023-04-09T23:52:55.132Z,15.57
2023-04-09T23:55:24.098Z,15.90
2023-04-09T23:57:52.674Z,15.80
